sensor_id;sensor_type;location;lat;lon;timestamp;pressure;altitude;pressure_sealevel;temperature;humidity
59411;BME280;45215;32.610;-115.482;2022-11-14T00:00:12;101326.91;;;19.80;46.67
59411;BME280;45215;32.610;-115.482;2022-11-14T00:02:39;101330.13;;;19.83;47.12
59411;BME280;45215;32.610;-115.482;2022-11-14T00:05:05;101336.53;;;19.82;46.13
59411;BME280;45215;32.610;-115.482;2022-11-14T00:07:33;101329.28;;;19.83;46.39
59411;BME280;45215;32.610;-115.482;2022-11-14T00:09:59;101324.88;;;19.82;46.31
59411;BME280;45215;32.610;-115.482;2022-11-14T00:12:25;101325.91;;;19.81;46.04
59411;BME280;45215;32.610;-115.482;2022-11-14T00:14:50;101334.69;;;19.83;45.41
59411;BME280;45215;32.610;-115.482;2022-11-14T00:17:16;101333.66;;;19.84;45.90
59411;BME280;45215;32.610;-115.482;2022-11-14T00:19:42;101340.72;;;19.85;47.01
59411;BME280;45215;32.610;-115.482;2022-11-14T00:22:08;101345.28;;;19.85;46.64
59411;BME280;45215;32.610;-115.482;2022-11-14T00:24:33;101347.13;;;19.84;46.65
59411;BME280;45215;32.610;-115.482;2022-11-14T00:26:59;101347.13;;;19.84;46.50
59411;BME280;45215;32.610;-115.482;2022-11-14T00:29:25;101348.13;;;19.83;46.90
59411;BME280;45215;32.610;-115.482;2022-11-14T00:31:51;101347.31;;;19.82;46.59
59411;BME280;45215;32.610;-115.482;2022-11-14T00:34:17;101346.44;;;19.82;46.71
59411;BME280;45215;32.610;-115.482;2022-11-14T00:36:42;101352.00;;;19.80;46.42
59411;BME280;45215;32.610;-115.482;2022-11-14T00:39:12;101350.13;;;19.81;46.40
59411;BME280;45215;32.610;-115.482;2022-11-14T00:41:38;101350.13;;;19.81;45.66
59411;BME280;45215;32.610;-115.482;2022-11-14T00:44:04;101351.50;;;19.85;47.24
59411;BME280;45215;32.610;-115.482;2022-11-14T00:46:30;101353.66;;;19.81;47.69
59411;BME280;45215;32.610;-115.482;2022-11-14T00:48:56;101363.59;;;19.81;48.11
59411;BME280;45215;32.610;-115.482;2022-11-14T00:51:22;101359.22;;;19.80;48.34
59411;BME280;45215;32.610;-115.482;2022-11-14T00:53:47;101365.59;;;19.79;49.37
59411;BME280;45215;32.610;-115.482;2022-11-14T00:56:13;101369.13;;;19.79;50.08
59411;BME280;45215;32.610;-115.482;2022-11-14T00:58:39;101369.13;;;19.79;49.45
59411;BME280;45215;32.610;-115.482;2022-11-14T01:01:05;101363.59;;;19.81;49.62
59411;BME280;45215;32.610;-115.482;2022-11-14T01:03:31;101360.91;;;19.81;50.18
59411;BME280;45215;32.610;-115.482;2022-11-14T01:05:56;101362.75;;;19.80;49.97
59411;BME280;45215;32.610;-115.482;2022-11-14T01:08:22;101367.97;;;19.82;49.94
59411;BME280;45215;32.610;-115.482;2022-11-14T01:10:49;101369.69;;;19.83;50.45
59411;BME280;45215;32.610;-115.482;2022-11-14T01:13:16;101374.03;;;19.84;50.47
59411;BME280;45215;32.610;-115.482;2022-11-14T01:15:45;101385.66;;;19.85;51.12
59411;BME280;45215;32.610;-115.482;2022-11-14T01:18:15;101389.19;;;19.85;51.23
59411;BME280;45215;32.610;-115.482;2022-11-14T01:20:42;101390.91;;;19.86;50.88
59411;BME280;45215;32.610;-115.482;2022-11-14T01:23:08;101381.97;;;19.86;50.98
59411;BME280;45215;32.610;-115.482;2022-11-14T01:25:35;101387.38;;;19.86;51.07
59411;BME280;45215;32.610;-115.482;2022-11-14T01:28:04;101397.97;;;19.87;51.56
59411;BME280;45215;32.610;-115.482;2022-11-14T01:30:30;101413.13;;;19.88;51.68
59411;BME280;45215;32.610;-115.482;2022-11-14T01:32:56;101410.44;;;19.88;51.68
59411;BME280;45215;32.610;-115.482;2022-11-14T01:35:22;101405.06;;;19.88;51.19
59411;BME280;45215;32.610;-115.482;2022-11-14T01:37:47;101409.81;;;19.76;50.65
59411;BME280;45215;32.610;-115.482;2022-11-14T01:40:13;101416.28;;;19.83;51.45
59411;BME280;45215;32.610;-115.482;2022-11-14T01:42:39;101416.09;;;19.85;51.67
59411;BME280;45215;32.610;-115.482;2022-11-14T01:47:49;101406.41;;;19.92;51.05
59411;BME280;45215;32.610;-115.482;2022-11-14T01:50:15;101402.69;;;19.93;49.98
59411;BME280;45215;32.610;-115.482;2022-11-14T01:52:41;101410.47;;;19.96;49.25
59411;BME280;45215;32.610;-115.482;2022-11-14T01:55:07;101414.84;;;19.97;49.72
59411;BME280;45215;32.610;-115.482;2022-11-14T01:57:37;101428.16;;;19.99;49.73
59411;BME280;45215;32.610;-115.482;2022-11-14T02:00:06;101437.06;;;19.99;50.05
59411;BME280;45215;32.610;-115.482;2022-11-14T02:02:32;101432.69;;;19.98;49.29
59411;BME280;45215;32.610;-115.482;2022-11-14T02:05:01;101434.38;;;19.99;49.81
59411;BME280;45215;32.610;-115.482;2022-11-14T02:07:28;101430.69;;;20.00;49.20
59411;BME280;45215;32.610;-115.482;2022-11-14T02:09:56;101429.00;;;19.99;48.48
59411;BME280;45215;32.610;-115.482;2022-11-14T02:12:24;101441.47;;;20.00;48.85
59411;BME280;45215;32.610;-115.482;2022-11-14T02:14:50;101452.06;;;20.02;49.06
59411;BME280;45215;32.610;-115.482;2022-11-14T02:17:17;101456.63;;;20.01;49.49
59411;BME280;45215;32.610;-115.482;2022-11-14T02:19:44;101460.69;;;20.05;50.39
59411;BME280;45215;32.610;-115.482;2022-11-14T02:22:10;101455.25;;;19.97;49.60
59411;BME280;45215;32.610;-115.482;2022-11-14T02:24:36;101456.78;;;20.00;47.31
59411;BME280;45215;32.610;-115.482;2022-11-14T02:27:03;101463.50;;;19.52;32.12
59411;BME280;45215;32.610;-115.482;2022-11-14T02:29:30;101468.25;;;19.58;47.06
59411;BME280;45215;32.610;-115.482;2022-11-14T02:31:56;101478.28;;;19.74;48.72
59411;BME280;45215;32.610;-115.482;2022-11-14T02:34:22;101490.97;;;19.81;48.76
59411;BME280;45215;32.610;-115.482;2022-11-14T02:36:48;101496.88;;;19.85;49.09
59411;BME280;45215;32.610;-115.482;2022-11-14T02:39:13;101493.22;;;19.86;49.12
59411;BME280;45215;32.610;-115.482;2022-11-14T02:41:39;101494.88;;;19.87;48.72
59411;BME280;45215;32.610;-115.482;2022-11-14T02:44:05;101495.72;;;19.88;48.91
59411;BME280;45215;32.610;-115.482;2022-11-14T02:46:31;101501.09;;;19.88;49.16
59411;BME280;45215;32.610;-115.482;2022-11-14T02:48:57;101499.28;;;19.88;48.54
59411;BME280;45215;32.610;-115.482;2022-11-14T02:51:22;101497.56;;;19.87;48.52
59411;BME280;45215;32.610;-115.482;2022-11-14T02:53:48;101504.81;;;19.87;48.67
59411;BME280;45215;32.610;-115.482;2022-11-14T02:56:14;101512.91;;;19.87;48.94
59411;BME280;45215;32.610;-115.482;2022-11-14T02:58:40;101509.50;;;19.85;48.68
59411;BME280;45215;32.610;-115.482;2022-11-14T03:01:05;101512.19;;;19.85;48.76
59411;BME280;45215;32.610;-115.482;2022-11-14T03:03:31;101512.38;;;19.83;48.50
59411;BME280;45215;32.610;-115.482;2022-11-14T03:05:58;101518.75;;;19.82;48.76
59411;BME280;45215;32.610;-115.482;2022-11-14T03:08:24;101517.91;;;19.81;48.88
59411;BME280;45215;32.610;-115.482;2022-11-14T03:10:49;101521.59;;;19.80;48.57
59411;BME280;45215;32.610;-115.482;2022-11-14T03:13:15;101522.44;;;19.81;49.01
59411;BME280;45215;32.610;-115.482;2022-11-14T03:15:41;101541.28;;;19.81;48.67
59411;BME280;45215;32.610;-115.482;2022-11-14T03:18:07;101537.75;;;19.80;48.93
59411;BME280;45215;32.610;-115.482;2022-11-14T03:20:33;101531.53;;;19.80;48.55
59411;BME280;45215;32.610;-115.482;2022-11-14T03:22:58;101539.59;;;19.80;48.30
59411;BME280;45215;32.610;-115.482;2022-11-14T03:25:24;101545.97;;;19.79;47.95
59411;BME280;45215;32.610;-115.482;2022-11-14T03:27:50;101550.50;;;19.78;47.81
59411;BME280;45215;32.610;-115.482;2022-11-14T03:30:16;101548.00;;;19.77;48.36
59411;BME280;45215;32.610;-115.482;2022-11-14T03:32:42;101555.44;;;19.65;33.19
59411;BME280;45215;32.610;-115.482;2022-11-14T03:35:08;101559.84;;;19.48;48.40
59411;BME280;45215;32.610;-115.482;2022-11-14T03:37:34;101572.75;;;19.63;48.51
59411;BME280;45215;32.610;-115.482;2022-11-14T03:39:59;101570.44;;;19.68;48.10
59411;BME280;45215;32.610;-115.482;2022-11-14T03:42:25;101579.38;;;19.68;48.73
59411;BME280;45215;32.610;-115.482;2022-11-14T03:44:51;101581.06;;;19.69;48.11
59411;BME280;45215;32.610;-115.482;2022-11-14T03:47:17;101585.44;;;19.70;47.94
59411;BME280;45215;32.610;-115.482;2022-11-14T03:49:42;101584.59;;;19.70;47.66
59411;BME280;45215;32.610;-115.482;2022-11-14T03:52:10;101579.22;;;19.70;47.93
59411;BME280;45215;32.610;-115.482;2022-11-14T03:54:35;101581.91;;;19.70;49.06
59411;BME280;45215;32.610;-115.482;2022-11-14T03:57:01;101588.28;;;19.69;48.49
59411;BME280;45215;32.610;-115.482;2022-11-14T03:59:27;101587.47;;;19.68;48.22
59411;BME280;45215;32.610;-115.482;2022-11-14T04:01:53;101603.75;;;19.67;48.20
59411;BME280;45215;32.610;-115.482;2022-11-14T04:04:19;101607.28;;;19.67;48.09
59411;BME280;45215;32.610;-115.482;2022-11-14T04:06:45;101616.91;;;19.70;49.09
59411;BME280;45215;32.610;-115.482;2022-11-14T04:09:11;101612.53;;;19.69;49.44
59411;BME280;45215;32.610;-115.482;2022-11-14T04:11:36;101622.44;;;19.68;47.98
59411;BME280;45215;32.610;-115.482;2022-11-14T04:14:02;101623.44;;;19.67;47.73
59411;BME280;45215;32.610;-115.482;2022-11-14T04:16:28;101616.19;;;19.68;47.44
59411;BME280;45215;32.610;-115.482;2022-11-14T04:18:54;101617.19;;;19.67;47.45
59411;BME280;45215;32.610;-115.482;2022-11-14T04:21:19;101621.44;;;19.69;47.34
59411;BME280;45215;32.610;-115.482;2022-11-14T04:23:45;101625.97;;;19.69;47.75
59411;BME280;45215;32.610;-115.482;2022-11-14T04:26:11;101631.50;;;19.67;48.63
59411;BME280;45215;32.610;-115.482;2022-11-14T04:28:37;101632.50;;;19.66;48.90
59411;BME280;45215;32.610;-115.482;2022-11-14T04:31:02;101635.22;;;19.66;49.32
59411;BME280;45215;32.610;-115.482;2022-11-14T04:33:28;101633.50;;;19.65;49.21
59411;BME280;45215;32.610;-115.482;2022-11-14T04:35:54;101627.28;;;19.65;48.00
59411;BME280;45215;32.610;-115.482;2022-11-14T04:38:20;101626.28;;;19.66;48.03
59411;BME280;45215;32.610;-115.482;2022-11-14T04:40:49;101633.34;;;19.67;48.14
59411;BME280;45215;32.610;-115.482;2022-11-14T04:43:16;101631.66;;;19.66;47.89
59411;BME280;45215;32.610;-115.482;2022-11-14T04:45:42;101638.88;;;19.65;48.36
59411;BME280;45215;32.610;-115.482;2022-11-14T04:48:08;101659.56;;;19.65;48.20
59411;BME280;45215;32.610;-115.482;2022-11-14T04:50:33;101672.06;;;19.66;49.06
59411;BME280;45215;32.610;-115.482;2022-11-14T04:52:59;101667.66;;;19.65;48.54
59411;BME280;45215;32.610;-115.482;2022-11-14T04:55:25;101671.34;;;19.64;48.35
59411;BME280;45215;32.610;-115.482;2022-11-14T04:57:54;101675.88;;;19.63;48.02
59411;BME280;45215;32.610;-115.482;2022-11-14T05:00:20;101676.72;;;19.64;47.94
59411;BME280;45215;32.610;-115.482;2022-11-14T05:02:46;101675.03;;;19.63;47.42
59411;BME280;45215;32.610;-115.482;2022-11-14T05:05:12;101669.09;;;19.59;47.74
59411;BME280;45215;32.610;-115.482;2022-11-14T05:07:38;101679.00;;;19.58;46.77
59411;BME280;45215;32.610;-115.482;2022-11-14T05:10:03;101680.03;;;19.57;46.80
59411;BME280;45215;32.610;-115.482;2022-11-14T05:12:29;101688.09;;;19.57;47.89
59411;BME280;45215;32.610;-115.482;2022-11-14T05:14:55;101699.84;;;19.56;47.94
59411;BME280;45215;32.610;-115.482;2022-11-14T05:17:21;101706.22;;;19.55;47.71
59411;BME280;45215;32.610;-115.482;2022-11-14T05:19:47;101712.47;;;19.56;47.74
59411;BME280;45215;32.610;-115.482;2022-11-14T05:22:13;101708.91;;;19.55;47.67
59411;BME280;45215;32.610;-115.482;2022-11-14T05:24:38;101703.53;;;19.55;47.78
59411;BME280;45215;32.610;-115.482;2022-11-14T05:27:04;101704.53;;;19.54;47.55
59411;BME280;45215;32.610;-115.482;2022-11-14T05:29:30;101695.78;;;19.52;47.40
59411;BME280;45215;32.610;-115.482;2022-11-14T05:31:56;101699.47;;;19.51;46.97
59411;BME280;45215;32.610;-115.482;2022-11-14T05:34:22;101694.09;;;19.51;47.47
59411;BME280;45215;32.610;-115.482;2022-11-14T05:36:48;101703.97;;;19.51;47.29
59411;BME280;45215;32.610;-115.482;2022-11-14T05:39:14;101713.91;;;19.50;47.47
59411;BME280;45215;32.610;-115.482;2022-11-14T05:41:40;101716.59;;;19.50;47.50
59411;BME280;45215;32.610;-115.482;2022-11-14T05:44:06;101722.97;;;19.49;48.77
59411;BME280;45215;32.610;-115.482;2022-11-14T05:46:32;101718.88;;;19.45;47.48
59411;BME280;45215;32.610;-115.482;2022-11-14T05:48:58;101722.28;;;19.47;47.01
59411;BME280;45215;32.610;-115.482;2022-11-14T05:51:24;101723.28;;;19.46;47.24
59411;BME280;45215;32.610;-115.482;2022-11-14T05:53:49;101717.91;;;19.46;47.15
59411;BME280;45215;32.610;-115.482;2022-11-14T05:56:15;101726.09;;;19.45;47.08
59411;BME280;45215;32.610;-115.482;2022-11-14T05:58:41;101719.75;;;19.46;46.95
59411;BME280;45215;32.610;-115.482;2022-11-14T06:01:11;101728.66;;;19.46;46.85
59411;BME280;45215;32.610;-115.482;2022-11-14T06:03:38;101734.03;;;19.46;46.97
59411;BME280;45215;32.610;-115.482;2022-11-14T06:06:05;101724.25;;;19.45;46.95
59411;BME280;45215;32.610;-115.482;2022-11-14T06:08:31;101727.66;;;19.47;46.94
59411;BME280;45215;32.610;-115.482;2022-11-14T06:11:04;101712.50;;;19.46;46.49
59411;BME280;45215;32.610;-115.482;2022-11-14T06:13:30;101710.66;;;19.47;47.14
59411;BME280;45215;32.610;-115.482;2022-11-14T06:16:06;101711.50;;;19.47;47.37
59411;BME280;45215;32.610;-115.482;2022-11-14T06:18:34;101712.34;;;19.48;47.29
59411;BME280;45215;32.610;-115.482;2022-11-14T06:21:00;101713.34;;;19.47;47.33
59411;BME280;45215;32.610;-115.482;2022-11-14T06:23:27;101722.28;;;19.47;47.29
59411;BME280;45215;32.610;-115.482;2022-11-14T06:26:00;101725.97;;;19.46;47.59
59411;BME280;45215;32.610;-115.482;2022-11-14T06:28:26;101735.03;;;19.45;47.63
59411;BME280;45215;32.610;-115.482;2022-11-14T06:30:59;101733.19;;;19.46;47.84
59411;BME280;45215;32.610;-115.482;2022-11-14T06:33:25;101737.72;;;19.45;47.59
59411;BME280;45215;32.610;-115.482;2022-11-14T06:35:56;101732.31;;;19.45;47.75
59411;BME280;45215;32.610;-115.482;2022-11-14T06:38:22;101722.56;;;19.44;47.48
59411;BME280;45215;32.610;-115.482;2022-11-14T06:40:48;101724.41;;;19.44;47.24
59411;BME280;45215;32.610;-115.482;2022-11-14T06:43:13;101726.41;;;19.42;47.31
59411;BME280;45215;32.610;-115.482;2022-11-14T06:45:39;101735.31;;;19.42;47.16
59411;BME280;45215;32.610;-115.482;2022-11-14T06:48:06;101729.25;;;19.40;47.09
59411;BME280;45215;32.610;-115.482;2022-11-14T06:50:32;101733.09;;;19.37;47.19
59411;BME280;45215;32.610;-115.482;2022-11-14T06:52:57;101746.38;;;19.39;47.71
59411;BME280;45215;32.610;-115.482;2022-11-14T06:55:23;101747.38;;;19.38;47.49
59411;BME280;45215;32.610;-115.482;2022-11-14T06:57:55;101740.16;;;19.38;47.44
59411;BME280;45215;32.610;-115.482;2022-11-14T07:00:21;101732.25;;;19.37;48.79
59411;BME280;45215;32.610;-115.482;2022-11-14T07:02:47;101728.97;;;19.33;48.06
59411;BME280;45215;32.610;-115.482;2022-11-14T07:05:13;101724.75;;;19.31;49.51
59411;BME280;45215;32.610;-115.482;2022-11-14T07:07:39;101720.38;;;19.30;49.37
59411;BME280;45215;32.610;-115.482;2022-11-14T07:10:05;101725.03;;;19.28;49.27
59411;BME280;45215;32.610;-115.482;2022-11-14T07:12:31;101724.34;;;19.26;49.67
59411;BME280;45215;32.610;-115.482;2022-11-14T07:14:57;101728.03;;;19.25;48.14
59411;BME280;45215;32.610;-115.482;2022-11-14T07:17:23;101722.63;;;19.25;48.36
59411;BME280;45215;32.610;-115.482;2022-11-14T07:19:48;101727.19;;;19.24;48.14
59411;BME280;45215;32.610;-115.482;2022-11-14T07:22:14;101721.94;;;19.23;48.51
59411;BME280;45215;32.610;-115.482;2022-11-14T07:24:40;101725.34;;;19.25;49.24
59411;BME280;45215;32.610;-115.482;2022-11-14T07:27:06;101728.72;;;19.27;47.53
59411;BME280;45215;32.610;-115.482;2022-11-14T07:29:35;101735.13;;;19.26;47.51
59411;BME280;45215;32.610;-115.482;2022-11-14T07:32:01;101723.47;;;19.25;46.40
59411;BME280;45215;32.610;-115.482;2022-11-14T07:34:27;101730.13;;;19.31;49.98
59411;BME280;45215;32.610;-115.482;2022-11-14T07:36:52;101735.78;;;19.28;48.84
59411;BME280;45215;32.610;-115.482;2022-11-14T07:39:19;101744.88;;;19.27;49.58
59411;BME280;45215;32.610;-115.482;2022-11-14T07:41:45;101745.16;;;19.24;49.21
59411;BME280;45215;32.610;-115.482;2022-11-14T07:44:11;101747.97;;;19.22;48.63
59411;BME280;45215;32.610;-115.482;2022-11-14T07:46:36;101751.66;;;19.21;49.37
59411;BME280;45215;32.610;-115.482;2022-11-14T07:49:02;101739.22;;;19.20;49.91
59411;BME280;45215;32.610;-115.482;2022-11-14T07:51:28;101732.41;;;19.16;50.06
59411;BME280;45215;32.610;-115.482;2022-11-14T07:53:54;101734.97;;;19.18;49.65
59411;BME280;45215;32.610;-115.482;2022-11-14T07:56:19;101734.97;;;19.18;50.00
59411;BME280;45215;32.610;-115.482;2022-11-14T07:58:46;101741.31;;;19.16;50.35
59411;BME280;45215;32.610;-115.482;2022-11-14T08:01:12;101748.53;;;19.16;49.97
59411;BME280;45215;32.610;-115.482;2022-11-14T08:03:39;101745.84;;;19.16;49.96
59411;BME280;45215;32.610;-115.482;2022-11-14T08:06:06;101749.38;;;19.16;49.64
59411;BME280;45215;32.610;-115.482;2022-11-14T08:08:32;101753.09;;;19.15;49.84
59411;BME280;45215;32.610;-115.482;2022-11-14T08:10:58;101756.78;;;19.14;49.92
59411;BME280;45215;32.610;-115.482;2022-11-14T08:13:24;101753.38;;;19.12;49.91
59411;BME280;45215;32.610;-115.482;2022-11-14T08:15:50;101739.94;;;19.12;47.95
59411;BME280;45215;32.610;-115.482;2022-11-14T08:18:16;101746.31;;;19.11;49.28
59411;BME280;45215;32.610;-115.482;2022-11-14T08:20:41;101755.34;;;19.10;49.05
59411;BME280;45215;32.610;-115.482;2022-11-14T08:23:08;101759.75;;;19.11;49.71
59411;BME280;45215;32.610;-115.482;2022-11-14T08:25:34;101755.34;;;19.10;49.41
59411;BME280;45215;32.610;-115.482;2022-11-14T08:27:59;101757.06;;;19.11;49.34
59411;BME280;45215;32.610;-115.482;2022-11-14T08:30:25;101764.44;;;19.09;49.72
59411;BME280;45215;32.610;-115.482;2022-11-14T08:32:51;101764.44;;;19.09;49.68
59411;BME280;45215;32.610;-115.482;2022-11-14T08:35:17;101765.41;;;19.08;49.14
59411;BME280;45215;32.610;-115.482;2022-11-14T08:37:43;101766.41;;;19.07;49.70
59411;BME280;45215;32.610;-115.482;2022-11-14T08:40:09;101768.38;;;19.05;49.42
59411;BME280;45215;32.610;-115.482;2022-11-14T08:42:35;101767.53;;;19.05;47.80
59411;BME280;45215;32.610;-115.482;2022-11-14T08:45:01;101768.38;;;19.05;48.61
59411;BME280;45215;32.610;-115.482;2022-11-14T08:47:26;101764.72;;;19.06;49.76
59411;BME280;45215;32.610;-115.482;2022-11-14T08:49:52;101759.63;;;19.03;49.51
59411;BME280;45215;32.610;-115.482;2022-11-14T08:52:19;101768.66;;;19.02;49.06
59411;BME280;45215;32.610;-115.482;2022-11-14T08:54:45;101774.22;;;19.01;49.09
59411;BME280;45215;32.610;-115.482;2022-11-14T08:57:11;101776.91;;;19.01;48.11
59411;BME280;45215;32.610;-115.482;2022-11-14T08:59:42;101770.53;;;19.02;49.64
59411;BME280;45215;32.610;-115.482;2022-11-14T09:02:11;101779.44;;;19.02;49.28
59411;BME280;45215;32.610;-115.482;2022-11-14T09:04:37;101768.97;;;18.99;49.44
59411;BME280;45215;32.610;-115.482;2022-11-14T09:07:03;101777.03;;;18.99;48.62
59411;BME280;45215;32.610;-115.482;2022-11-14T09:09:29;101785.94;;;19.00;48.27
59411;BME280;45215;32.610;-115.482;2022-11-14T09:11:55;101785.25;;;18.98;49.47
59411;BME280;45215;32.610;-115.482;2022-11-14T09:14:21;101790.75;;;18.96;49.71
59411;BME280;45215;32.610;-115.482;2022-11-14T09:16:46;101789.09;;;18.95;48.39
59411;BME280;45215;32.610;-115.482;2022-11-14T09:19:12;101792.75;;;18.94;49.56
59411;BME280;45215;32.610;-115.482;2022-11-14T09:21:38;101791.91;;;18.93;49.39
59411;BME280;45215;32.610;-115.482;2022-11-14T09:24:04;101784.84;;;18.92;49.64
59411;BME280;45215;32.610;-115.482;2022-11-14T09:26:30;101790.22;;;18.92;49.56
59411;BME280;45215;32.610;-115.482;2022-11-14T09:28:56;101785.97;;;18.90;48.46
59411;BME280;45215;32.610;-115.482;2022-11-14T09:31:21;101791.34;;;18.90;48.44
59411;BME280;45215;32.610;-115.482;2022-11-14T09:33:47;101776.91;;;18.91;48.96
59411;BME280;45215;32.610;-115.482;2022-11-14T09:36:13;101787.94;;;18.88;48.15
59411;BME280;45215;32.610;-115.482;2022-11-14T09:38:40;101790.63;;;18.88;48.97
59411;BME280;45215;32.610;-115.482;2022-11-14T09:46:26;101793.31;;;18.88;49.43
59411;BME280;45215;32.610;-115.482;2022-11-14T09:48:56;101791.63;;;18.87;49.53
59411;BME280;45215;32.610;-115.482;2022-11-14T09:51:32;101797.00;;;18.87;49.25
59411;BME280;45215;32.610;-115.482;2022-11-14T09:57:01;101797.00;;;18.87;49.06
59411;BME280;45215;32.610;-115.482;2022-11-14T09:59:27;101787.25;;;18.86;49.31
59411;BME280;45215;32.610;-115.482;2022-11-14T10:06:58;101781.16;;;18.84;49.06
59411;BME280;45215;32.610;-115.482;2022-11-14T10:12:03;101782.16;;;18.83;48.99
59411;BME280;45215;32.610;-115.482;2022-11-14T10:19:41;101787.69;;;18.81;49.12
59411;BME280;45215;32.610;-115.482;2022-11-14T10:22:14;101786.84;;;18.81;49.31
59411;BME280;45215;32.610;-115.482;2022-11-14T10:27:28;101805.34;;;18.84;48.81
59411;BME280;45215;32.610;-115.482;2022-11-14T10:30:07;101815.41;;;18.82;48.90
59411;BME280;45215;32.610;-115.482;2022-11-14T10:32:41;101810.31;;;18.79;48.46
59411;BME280;45215;32.610;-115.482;2022-11-14T10:40:28;101826.84;;;18.74;48.85
59411;BME280;45215;32.610;-115.482;2022-11-14T10:43:02;101833.09;;;18.75;49.23
59411;BME280;45215;32.610;-115.482;2022-11-14T10:45:32;101841.28;;;18.73;49.19
59411;BME280;45215;32.610;-115.482;2022-11-14T10:48:03;101842.41;;;18.70;49.21
59411;BME280;45215;32.610;-115.482;2022-11-14T10:53:24;101843.41;;;18.69;49.06
59411;BME280;45215;32.610;-115.482;2022-11-14T10:55:51;101836.31;;;18.68;49.07
59411;BME280;45215;32.610;-115.482;2022-11-14T10:58:18;101833.78;;;18.67;47.46
59411;BME280;45215;32.610;-115.482;2022-11-14T11:00:45;101834.63;;;18.67;48.29
59411;BME280;45215;32.610;-115.482;2022-11-14T11:03:11;101841.00;;;18.66;47.30
59411;BME280;45215;32.610;-115.482;2022-11-14T11:05:47;101844.66;;;18.65;48.93
59411;BME280;45215;32.610;-115.482;2022-11-14T11:08:17;101845.66;;;18.64;49.20
59411;BME280;45215;32.610;-115.482;2022-11-14T11:11:01;101840.41;;;18.63;47.27
59411;BME280;45215;32.610;-115.482;2022-11-14T11:13:52;101834.19;;;18.62;46.82
59411;BME280;45215;32.610;-115.482;2022-11-14T11:16:23;101834.19;;;18.62;48.92
59411;BME280;45215;32.610;-115.482;2022-11-14T11:18:49;101848.63;;;18.61;48.83
59411;BME280;45215;32.610;-115.482;2022-11-14T11:21:16;101846.94;;;18.60;48.78
59411;BME280;45215;32.610;-115.482;2022-11-14T11:23:50;101846.22;;;18.58;47.55
59411;BME280;45215;32.610;-115.482;2022-11-14T11:26:20;101833.78;;;18.57;46.80
59411;BME280;45215;32.610;-115.482;2022-11-14T11:31:27;101844.53;;;18.57;48.17
59411;BME280;45215;32.610;-115.482;2022-11-14T11:34:09;101848.19;;;18.56;47.76
59411;BME280;45215;32.610;-115.482;2022-11-14T11:36:40;101844.66;;;18.56;48.01
59411;BME280;45215;32.610;-115.482;2022-11-14T11:39:09;101833.09;;;18.55;48.32
59411;BME280;45215;32.610;-115.482;2022-11-14T11:41:41;101836.75;;;18.54;48.39
59411;BME280;45215;32.610;-115.482;2022-11-14T11:44:09;101838.56;;;18.54;46.82
59411;BME280;45215;32.610;-115.482;2022-11-14T11:46:56;101845.66;;;18.55;47.35
59411;BME280;45215;32.610;-115.482;2022-11-14T11:52:10;101850.75;;;18.58;46.77
59411;BME280;45215;32.610;-115.482;2022-11-14T11:57:34;101851.16;;;18.53;46.14
59411;BME280;45215;32.610;-115.482;2022-11-14T12:00:19;101860.06;;;18.54;46.30
59411;BME280;45215;32.610;-115.482;2022-11-14T12:02:47;101869.97;;;18.53;46.04
59411;BME280;45215;32.610;-115.482;2022-11-14T12:05:23;101865.44;;;18.54;46.28
59411;BME280;45215;32.610;-115.482;2022-11-14T12:07:54;101870.97;;;18.52;46.30
59411;BME280;45215;32.610;-115.482;2022-11-14T12:10:23;101858.50;;;18.51;45.68
59411;BME280;45215;32.610;-115.482;2022-11-14T12:30:52;101875.34;;;18.43;45.84
59411;BME280;45215;32.610;-115.482;2022-11-14T12:33:22;101877.03;;;18.44;46.63
59411;BME280;45215;32.610;-115.482;2022-11-14T12:35:51;101869.09;;;18.43;46.56
59411;BME280;45215;32.610;-115.482;2022-11-14T12:38:18;101864.72;;;18.42;46.10
59411;BME280;45215;32.610;-115.482;2022-11-14T12:40:50;101870.94;;;18.42;45.92
59411;BME280;45215;32.610;-115.482;2022-11-14T12:48:22;101886.50;;;18.39;47.14
59411;BME280;45215;32.610;-115.482;2022-11-14T12:50:48;101885.66;;;18.38;46.62
59411;BME280;45215;32.610;-115.482;2022-11-14T13:02:21;101898.50;;;18.35;47.86
59411;BME280;45215;32.610;-115.482;2022-11-14T13:10:00;101902.44;;;18.31;48.00
59411;BME280;45215;32.610;-115.482;2022-11-14T13:18:12;101910.28;;;18.22;48.31
59411;BME280;45215;32.610;-115.482;2022-11-14T13:21:00;101915.66;;;18.22;48.06
59411;BME280;45215;32.610;-115.482;2022-11-14T13:28:43;101909.72;;;18.19;47.37
59411;BME280;45215;32.610;-115.482;2022-11-14T13:36:33;101935.72;;;18.18;48.05
59411;BME280;45215;32.610;-115.482;2022-11-14T13:52:00;101934.47;;;18.22;45.19
59411;BME280;45215;32.610;-115.482;2022-11-14T13:54:26;101931.66;;;18.24;45.03
59411;BME280;45215;32.610;-115.482;2022-11-14T13:57:06;101936.03;;;18.25;44.66
59411;BME280;45215;32.610;-115.482;2022-11-14T14:00:11;101932.38;;;18.26;45.37
59411;BME280;45215;32.610;-115.482;2022-11-14T14:05:08;101950.69;;;18.32;46.71
59411;BME280;45215;32.610;-115.482;2022-11-14T14:10:26;101960.31;;;18.35;46.40
59411;BME280;45215;32.610;-115.482;2022-11-14T14:20:51;101986.16;;;18.36;46.76
59411;BME280;45215;32.610;-115.482;2022-11-14T14:28:40;101994.34;;;18.34;46.99